CDT,Max TemperatureF,Mean TemperatureF,Min TemperatureF,Max Dew PointF,MeanDew PointF,Min DewpointF,Max Humidity, Mean Humidity, Min Humidity, Max Sea Level PressureIn, Mean Sea Level PressureIn, Min Sea Level PressureIn, Max VisibilityMiles, Mean VisibilityMiles, Min VisibilityMiles, Max Wind SpeedMPH, Mean Wind SpeedMPH, Max Gust SpeedMPH,PrecipitationIn, CloudCover, Events, WindDirDegrees
2012-10-1,,,,,,,,,,,,,,,,,,,,,,
2012-10-2,,,,,,,,,,,,,,,,,,,,,,
2012-10-3,,,,,,,,,,,,,,,,,,,,,,
2012-10-4,,,,,,,,,,,,,,,,,,,,,,
2012-10-5,,,,,,,,,,,,,,,,,,,,,,
2012-10-6,,,,,,,,,,,,,,,,,,,,,,
2012-10-7,,,,,,,,,,,,,,,,,,,,,,
2012-10-8,,,,,,,,,,,,,,,,,,,,,,
2012-10-9,,,,,,,,,,,,,,,,,,,,,,
2012-10-10,,,,,,,,,,,,,,,,,,,,,,
2012-10-11,59,55,51,50,46,43,88,72,55,30.20,30.19,30.19,10,10,10,9,5,,0.00,,,154
2012-10-12,60,56,51,59,54,48,100,90,82,30.34,30.24,30.17,10,8,1,16,6,23,0.20,,Rain-Thunderstorm,50
2012-10-13,82,70,59,66,63,59,100,82,54,30.21,30.07,29.90,10,6,0,21,8,28,0.00,,Fog,174
2012-10-14,75,66,57,66,60,52,100,78,50,29.99,29.88,29.77,10,9,1,28,19,41,0.17,,Rain-Thunderstorm,223
2012-10-15,75,62,48,54,50,46,100,69,38,30.07,30.00,29.95,10,9,2,12,6,,0.00,,,219
2012-10-16,77,64,50,55,52,50,100,68,39,29.96,29.85,29.75,10,8,2,22,8,32,0.00,,,196
2012-10-17,75,65,55,66,58,50,100,80,61,29.76,29.63,29.45,10,9,0,30,13,39,0.07,,Fog-Rain-Thunderstorm,203
2012-10-18,64,56,48,52,41,32,94,63,30,29.80,29.74,29.69,10,10,10,25,11,32,0.00,,,245
2012-10-19,60,53,44,45,40,36,87,61,45,29.88,29.76,29.68,10,10,9,24,11,32,0.00,,,260
2012-10-20,69,54,39,48,44,39,100,72,40,29.96,29.90,29.87,10,10,3,14,6,20,0.00,,,199
2012-10-21,78,63,48,66,55,45,88,76,61,29.99,29.96,29.92,10,10,10,18,8,21,0.00,,,159
2012-10-22,80,70,59,64,56,50,82,63,42,30.07,30.02,29.99,10,10,10,25,13,36,0.00,,Rain,185
2012-10-23,80,70,59,63,57,50,82,65,48,30.04,29.99,29.95,10,10,9,22,10,33,0.00,,,191
2012-10-24,82,70,57,66,61,55,94,74,54,30.06,30.00,29.94,10,10,8,17,10,24,0.00,,,183
2012-10-25,82,65,48,64,59,46,94,74,54,30.10,29.94,29.87,10,9,2,24,12,32,0.56,,Rain,185
2012-10-26,53,47,39,46,37,32,93,71,44,30.28,30.22,30.11,10,10,4,21,13,28,0.09,,Rain,10
2012-10-27,57,46,35,32,31,28,87,63,33,30.27,30.22,30.15,10,10,10,17,10,24,0.00,,,358
2012-10-28,57,46,35,32,30,27,81,60,31,30.25,30.21,30.16,10,10,3,16,9,21,0.00,,,350
2012-10-29,57,45,33,36,28,19,87,55,23,30.32,30.23,30.11,10,10,9,13,8,17,0.00,,,341
2012-10-30,62,48,35,36,28,23,75,52,22,30.11,30.01,29.91,10,10,10,20,7,21,0.01,,Rain,311
2012-10-31,66,52,39,37,31,25,81,49,24,30.02,29.98,29.94,10,10,9,16,6,,0.00,,,315